createdAt,value
2019-03-13T00:00:56.354Z,99687.74
2019-03-13T00:04:58.203Z,99677.39
2019-03-13T00:09:00.037Z,99697.27
2019-03-13T00:13:02.003Z,99693.73
2019-03-13T00:17:03.878Z,99699.37
2019-03-13T00:21:05.737Z,99702.13
2019-03-13T00:25:07.814Z,99693.08
2019-03-13T00:29:09.534Z,99705.78
2019-03-13T00:33:11.285Z,99698.53
2019-03-13T00:37:13.016Z,99690.39
2019-03-13T00:41:14.672Z,99703.68
2019-03-13T00:45:16.445Z,99705.89
2019-03-13T00:49:18.328Z,99693.90
2019-03-13T00:53:20.107Z,99691.77
2019-03-13T00:57:21.985Z,99689.77
2019-03-13T01:01:38.339Z,99687.91
2019-03-13T01:05:44.823Z,99687.06
2019-03-13T01:09:46.553Z,99674.65
2019-03-13T01:13:48.252Z,99683.92
2019-03-13T01:17:49.994Z,99687.28
2019-03-13T01:21:51.843Z,99682.92
2019-03-13T01:25:53.506Z,99693.90
2019-03-13T01:29:55.255Z,99678.80
2019-03-13T01:34:11.728Z,99688.22
2019-03-13T01:38:13.722Z,99682.92
2019-03-13T01:42:15.339Z,99677.75
2019-03-13T01:46:17.141Z,99676.94
2019-03-13T01:50:18.880Z,99666.43
2019-03-13T01:54:20.573Z,99669.80
2019-03-13T01:58:22.224Z,99667.03
2019-03-13T02:02:24.003Z,99660.08
2019-03-13T02:06:25.661Z,99653.14
2019-03-13T02:10:34.379Z,99659.42
2019-03-13T02:14:36.011Z,99651.48
2019-03-13T02:18:37.854Z,99641.55
2019-03-13T02:22:39.621Z,99644.64
2019-03-13T02:26:41.681Z,99645.20
2019-03-13T02:30:43.313Z,99642.69
2019-03-13T02:34:45.103Z,99647.45
2019-03-13T02:38:46.770Z,99643.91
2019-03-13T02:42:48.514Z,99648.65
2019-03-13T02:46:50.199Z,99636.75
2019-03-13T02:50:51.954Z,99628.30
2019-03-13T02:54:53.645Z,99641.30
2019-03-13T02:58:55.354Z,99634.73
2019-03-13T03:02:59.399Z,99623.69
2019-03-13T03:07:01.063Z,99640.86
2019-03-13T03:11:02.803Z,99643.89
2019-03-13T03:15:07.991Z,99640.30
2019-03-13T03:19:09.925Z,99632.30
2019-03-13T03:23:11.653Z,99626.27
2019-03-13T03:27:13.311Z,99630.92
2019-03-13T03:31:15.063Z,99619.37
2019-03-13T03:35:16.994Z,99616.29
2019-03-13T03:39:18.863Z,99609.44
2019-03-13T03:43:20.527Z,99610.53
2019-03-13T03:47:22.375Z,99614.95
2019-03-13T03:51:24.108Z,99621.30
2019-03-13T03:55:25.895Z,99617.20
2019-03-13T03:59:27.657Z,99625.22
2019-03-13T04:03:29.517Z,99617.20
2019-03-13T04:07:31.262Z,99634.05
2019-03-13T04:11:33.016Z,99630.81
2019-03-13T04:15:34.743Z,99626.13
2019-03-13T04:19:36.448Z,99612.91
2019-03-13T04:23:38.114Z,99618.63
2019-03-13T04:27:40.194Z,99620.37
2019-03-13T04:31:41.849Z,99620.65
2019-03-13T04:35:43.591Z,99615.72
2019-03-13T04:39:45.234Z,99595.84
2019-03-13T04:43:46.892Z,99609.95
2019-03-13T04:47:48.521Z,99621.56
2019-03-13T04:51:50.274Z,99608.89
2019-03-13T04:55:52.742Z,99600.61
2019-03-13T04:59:54.646Z,99612.20
2019-03-13T05:03:56.398Z,99607.00
2019-03-13T05:07:58.113Z,99613.31
2019-03-13T05:11:59.866Z,99590.34
2019-03-13T05:16:01.863Z,99617.97
2019-03-13T05:20:03.794Z,99614.42
2019-03-13T05:24:05.560Z,99599.53
2019-03-13T05:28:07.178Z,99609.48
2019-03-13T05:32:09.008Z,99603.44
2019-03-13T05:36:10.861Z,99594.02
2019-03-13T05:40:12.612Z,99591.53
2019-03-13T05:44:14.371Z,99602.86
2019-03-13T05:48:16.148Z,99564.73
2019-03-13T05:52:17.789Z,99573.05
2019-03-13T05:56:19.649Z,99589.08
2019-03-13T06:00:22.852Z,99590.45
2019-03-13T06:04:24.765Z,99603.76
2019-03-13T06:08:26.501Z,99597.95
2019-03-13T06:12:28.139Z,99587.55
2019-03-13T06:16:29.791Z,99594.95
2019-03-13T06:20:31.680Z,99596.61
2019-03-13T06:24:33.349Z,99591.39
2019-03-13T06:28:35.088Z,99589.70
2019-03-13T06:32:36.698Z,99588.63
2019-03-13T06:36:38.473Z,99579.30
2019-03-13T06:40:40.112Z,99567.94
2019-03-13T06:44:41.763Z,99562.16
2019-03-13T06:48:43.412Z,99560.23
2019-03-13T06:52:45.279Z,99565.78
2019-03-13T06:56:47.039Z,99584.73
2019-03-13T07:01:06.380Z,99561.66
2019-03-13T07:05:18.519Z,99583.44
2019-03-13T07:09:44.027Z,99612.45
2019-03-13T07:14:00.536Z,99587.74
2019-03-13T07:18:21.145Z,99579.50
2019-03-13T07:22:33.368Z,99574.80
2019-03-13T07:26:43.122Z,99564.07
2019-03-13T07:31:07.259Z,99581.27
2019-03-13T07:35:25.979Z,99573.87
2019-03-13T07:39:34.402Z,99587.39
2019-03-13T07:43:58.486Z,99589.13
2019-03-13T07:48:19.021Z,99588.48
2019-03-13T07:52:46.380Z,99580.28
2019-03-13T07:57:06.481Z,99583.99
2019-03-13T08:01:21.332Z,99577.72
2019-03-13T08:05:37.791Z,99572.50
2019-03-13T08:09:49.450Z,99567.49
2019-03-13T08:14:16.911Z,99578.82
2019-03-13T08:18:53.206Z,99569.00
2019-03-13T08:23:03.469Z,99556.02
2019-03-13T08:27:17.935Z,99559.92
2019-03-13T08:31:32.767Z,99557.79
2019-03-13T08:35:57.391Z,99565.31
2019-03-13T08:40:36.602Z,99544.91
2019-03-13T08:44:47.233Z,99548.31
2019-03-13T08:49:01.650Z,99544.75
2019-03-13T08:53:13.403Z,99539.05
2019-03-13T08:57:34.825Z,99565.31
2019-03-13T09:01:50.534Z,99556.16
2019-03-13T09:06:00.289Z,99550.09
2019-03-13T09:10:31.288Z,99549.26
2019-03-13T09:14:44.683Z,99554.73
2019-03-13T09:19:04.782Z,99553.78
2019-03-13T09:23:24.877Z,99546.08
2019-03-13T09:27:44.985Z,99528.09
2019-03-13T09:32:21.511Z,99536.37
2019-03-13T09:36:49.028Z,99545.17
2019-03-13T09:41:10.579Z,99536.58
2019-03-13T09:45:34.851Z,99521.70
2019-03-13T09:49:46.534Z,99501.30
2019-03-13T09:54:13.818Z,99527.34
2019-03-13T09:58:34.213Z,99526.44
2019-03-13T10:02:51.794Z,99542.40
2019-03-13T10:07:01.010Z,99536.47
2019-03-13T10:11:09.029Z,99521.53
2019-03-13T10:15:33.604Z,99539.14
2019-03-13T10:19:46.664Z,99541.44
2019-03-13T10:24:03.784Z,99549.54
2019-03-13T10:28:10.829Z,99545.67
2019-03-13T10:32:32.216Z,99537.16
2019-03-13T10:37:02.599Z,99529.75
2019-03-13T10:41:22.332Z,99525.50
2019-03-13T10:45:39.543Z,99489.40
2019-03-13T10:49:46.209Z,99518.67
2019-03-13T10:54:03.172Z,99505.17
2019-03-13T10:58:30.236Z,99519.56
2019-03-13T11:02:45.127Z,99509.14
2019-03-13T11:07:09.324Z,99508.93
2019-03-13T11:11:19.376Z,99501.44
2019-03-13T11:15:49.676Z,99502.57
2019-03-13T11:20:14.107Z,99502.08
2019-03-13T11:24:22.333Z,99480.83
2019-03-13T11:28:33.032Z,99519.80
2019-03-13T11:32:43.580Z,99514.35
2019-03-13T11:37:12.379Z,99509.66
2019-03-13T11:41:32.810Z,99497.55
2019-03-13T11:45:48.150Z,99497.55
2019-03-13T11:50:15.330Z,99495.91
2019-03-13T11:54:39.203Z,99495.09
2019-03-13T11:59:09.498Z,99474.95
2019-03-13T12:03:31.301Z,99464.20
2019-03-13T12:07:45.577Z,99467.02
2019-03-13T12:12:11.063Z,99465.61
2019-03-13T12:16:20.565Z,99439.08
2019-03-13T12:20:46.860Z,99449.84
2019-03-13T12:25:00.418Z,99456.45
2019-03-13T12:29:30.033Z,99446.69
2019-03-13T12:33:42.675Z,99440.47
2019-03-13T12:38:02.766Z,99449.78
2019-03-13T12:42:39.392Z,99442.55
2019-03-13T12:46:50.307Z,99422.14
2019-03-13T12:51:10.512Z,99433.46
2019-03-13T12:55:32.083Z,99423.80
2019-03-13T12:59:59.536Z,99427.66
2019-03-13T13:04:10.873Z,99429.59
2019-03-13T13:08:37.979Z,99447.77
2019-03-13T13:12:47.640Z,99443.05
2019-03-13T13:17:01.207Z,99437.73
2019-03-13T13:21:03.094Z,99447.64
2019-03-13T13:25:05.804Z,99453.23
2019-03-13T13:29:07.440Z,99441.94
2019-03-13T13:33:09.385Z,99439.81
2019-03-13T13:37:11.322Z,99430.73
2019-03-13T13:41:13.089Z,99433.48
2019-03-13T13:45:59.111Z,99425.48
2019-03-13T13:50:00.810Z,99441.72
2019-03-13T13:54:02.780Z,99431.83
2019-03-13T13:58:04.829Z,99427.98
2019-03-13T14:02:06.704Z,99421.22
2019-03-13T14:06:08.397Z,99430.70
2019-03-13T14:10:10.278Z,99434.30
2019-03-13T14:14:11.900Z,99432.13
2019-03-13T14:18:13.545Z,99431.50
2019-03-13T14:22:15.262Z,99441.94
2019-03-13T14:26:17.107Z,99449.98
2019-03-13T14:30:19.327Z,99446.39
2019-03-13T14:34:21.127Z,99452.92
2019-03-13T14:38:22.935Z,99463.12
2019-03-13T14:42:24.669Z,99479.12
2019-03-13T14:46:26.310Z,99487.08
2019-03-13T14:50:28.133Z,99492.05
2019-03-13T14:54:29.772Z,99513.01
2019-03-13T14:58:31.532Z,99503.00
2019-03-13T15:02:33.279Z,99500.23
2019-03-13T15:06:34.995Z,99491.67
2019-03-13T15:10:36.616Z,99504.38
2019-03-13T15:14:38.372Z,99495.39
2019-03-13T15:18:40.017Z,99463.42
2019-03-13T15:22:41.852Z,99475.34
2019-03-13T15:26:43.484Z,99492.22
2019-03-13T15:30:45.291Z,99484.83
2019-03-13T15:34:46.950Z,99492.23
2019-03-13T15:38:48.830Z,99468.65
2019-03-13T15:42:50.549Z,99489.59
2019-03-13T15:46:52.195Z,99495.05
2019-03-13T15:50:53.845Z,99481.27
2019-03-13T15:54:55.585Z,99468.30
2019-03-13T15:58:57.210Z,99472.47
2019-03-13T16:02:59.042Z,99476.94
2019-03-13T16:07:00.901Z,99479.39
2019-03-13T16:11:02.762Z,99491.86
2019-03-13T16:15:06.249Z,99497.74
2019-03-13T16:19:07.900Z,99493.55
2019-03-13T16:23:09.823Z,99510.06
2019-03-13T16:27:11.575Z,99509.14
2019-03-13T16:31:13.303Z,99518.56
2019-03-13T16:35:15.092Z,99524.12
2019-03-13T16:39:16.930Z,99536.24
2019-03-13T16:43:18.794Z,99538.94
2019-03-13T16:47:20.793Z,99535.27
2019-03-13T16:51:22.601Z,99541.63
2019-03-13T16:55:24.344Z,99540.04
2019-03-13T16:59:26.114Z,99536.70
2019-03-13T17:03:27.726Z,99536.41
2019-03-13T17:07:29.790Z,99537.80
2019-03-13T17:11:38.277Z,99546.64
2019-03-13T17:15:42.181Z,99550.73
2019-03-13T17:19:43.907Z,99553.54
2019-03-13T17:23:45.685Z,99570.62
2019-03-13T17:27:48.017Z,99560.92
2019-03-13T17:31:49.770Z,99569.75
2019-03-13T17:35:51.406Z,99569.20
2019-03-13T17:39:53.431Z,99574.72
2019-03-13T17:43:55.043Z,99560.44
2019-03-13T17:47:57.130Z,99586.41
2019-03-13T17:51:58.884Z,99601.67
2019-03-13T17:56:00.690Z,99609.68
2019-03-13T18:00:03.908Z,99607.39
2019-03-13T18:04:05.725Z,99617.45
2019-03-13T18:08:07.478Z,99617.18
2019-03-13T18:12:09.343Z,99624.36
2019-03-13T18:16:11.148Z,99629.56
2019-03-13T18:20:14.659Z,99638.17
2019-03-13T18:24:16.380Z,99640.93
2019-03-13T18:28:18.353Z,99645.55
2019-03-13T18:32:19.959Z,99649.73
2019-03-13T18:36:22.036Z,99665.20
2019-03-13T18:40:23.895Z,99674.36
2019-03-13T18:44:25.727Z,99670.03
2019-03-13T18:48:27.474Z,99697.42
2019-03-13T18:52:29.418Z,99685.93
2019-03-13T18:56:31.210Z,99692.80
2019-03-13T19:00:33.181Z,99693.16
2019-03-13T19:04:35.045Z,99701.48
2019-03-13T19:08:36.839Z,99706.34
2019-03-13T19:12:38.686Z,99719.02
2019-03-13T19:16:40.345Z,99732.84
2019-03-13T19:20:42.049Z,99740.66
2019-03-13T19:24:43.699Z,99755.20
2019-03-13T19:28:47.086Z,99754.60
2019-03-13T19:32:49.137Z,99771.12
2019-03-13T19:36:51.334Z,99778.34
2019-03-13T19:40:53.230Z,99787.58
2019-03-13T19:44:54.847Z,99796.97
2019-03-13T19:48:56.510Z,99807.48
2019-03-13T19:52:58.384Z,99800.66
2019-03-13T19:57:00.066Z,99806.84
2019-03-13T20:01:02.349Z,99814.66
2019-03-13T20:05:04.554Z,99822.95
2019-03-13T20:09:06.844Z,99831.72
2019-03-13T20:13:08.803Z,99829.45
2019-03-13T20:17:12.422Z,99844.95
2019-03-13T20:21:16.080Z,99852.22
2019-03-13T20:25:19.955Z,99855.41
2019-03-13T20:29:23.525Z,99859.27
2019-03-13T20:33:27.267Z,99868.95
2019-03-13T20:37:30.930Z,99867.90
2019-03-13T20:41:34.653Z,99877.13
2019-03-13T20:45:38.319Z,99880.06
2019-03-13T20:49:42.263Z,99889.80
2019-03-13T20:53:45.876Z,99888.60
2019-03-13T20:57:49.642Z,99890.30
2019-03-13T21:02:03.732Z,99903.02
2019-03-13T21:06:08.317Z,99915.92
2019-03-13T21:10:12.377Z,99914.92
2019-03-13T21:14:15.914Z,99920.02
2019-03-13T21:18:19.677Z,99928.91
2019-03-13T21:22:23.215Z,99919.45
2019-03-13T21:26:26.851Z,99928.69
2019-03-13T21:30:30.706Z,99936.80
2019-03-13T21:34:34.400Z,99950.98
2019-03-13T21:38:37.934Z,99962.28
2019-03-13T21:42:41.683Z,99963.06
2019-03-13T21:46:45.214Z,99970.94
2019-03-13T21:50:50.402Z,99977.30
2019-03-13T21:54:54.381Z,99975.05
2019-03-13T21:58:58.038Z,99977.53
2019-03-13T22:03:01.576Z,99985.50
2019-03-13T22:07:05.291Z,99989.64
2019-03-13T22:11:08.841Z,99991.10
2019-03-13T22:15:13.610Z,99998.61
2019-03-13T22:19:17.244Z,100021.40
2019-03-13T22:23:20.806Z,100013.37
2019-03-13T22:27:24.333Z,100012.83
2019-03-13T22:31:27.982Z,100012.16
2019-03-13T22:35:31.609Z,100017.33
2019-03-13T22:39:35.169Z,100021.89
2019-03-13T22:43:38.709Z,100029.19
2019-03-13T22:47:43.365Z,100026.79
2019-03-13T22:51:47.296Z,100039.58
2019-03-13T22:55:50.970Z,100045.16
2019-03-13T22:59:54.513Z,100056.29
2019-03-13T23:03:58.152Z,100056.16
2019-03-13T23:08:01.882Z,100056.65
2019-03-13T23:12:05.637Z,100065.48
2019-03-13T23:16:09.273Z,100070.39
2019-03-13T23:20:13.107Z,100066.38
2019-03-13T23:24:17.943Z,100072.87
2019-03-13T23:28:21.643Z,100089.45
2019-03-13T23:32:25.155Z,100097.76
2019-03-13T23:36:28.804Z,100092.98
2019-03-13T23:40:32.318Z,100101.47
2019-03-13T23:44:35.878Z,100099.41
2019-03-13T23:48:39.397Z,100101.80
2019-03-13T23:52:42.992Z,100106.44
2019-03-13T23:56:46.520Z,100104.98
